Saint-Jude, Canada
Current Conditions -  °F | °C
As of 4:00 AM on Saturday 25 Oct 2014 (Local Time) from CYHU Reporting Station
Scattered Clouds Scattered Clouds  
Wind Chill:   Ceiling: Unl
Heat Index:   Visibility: 9mi
Dew Point:   Wind: 2mph
Humidity: 87%   Direction: NA
Pressure: 29.74"   Gusts: NA
Location:  45.77°N, 72.98°W
Report Text: CYHU 250800Z AUTO VRB02KT 9SM SCT160 03/01 A2974 RMK SLP070
Loading
Personal Weather Stations






























Interactive Weather Map
Tropical Storm Tracking
New forecast layout! Learn more

10-Day Weather Forecast

Advertisements
Track Severe Weather on mobile